sensor_id;sensor_type;location;lat;lon;timestamp;P1;durP1;ratioP1;P2;durP2;ratioP2
47089;SDS011;32840;52.516;13.294;2023-03-31T00:00:24;8.50;;;2.20;;
47089;SDS011;32840;52.516;13.294;2023-03-31T00:03:08;4.55;;;1.77;;
47089;SDS011;32840;52.516;13.294;2023-03-31T00:06:08;6.07;;;2.35;;
47089;SDS011;32840;52.516;13.294;2023-03-31T00:08:55;6.40;;;2.10;;
47089;SDS011;32840;52.516;13.294;2023-03-31T00:11:45;5.65;;;2.42;;
47089;SDS011;32840;52.516;13.294;2023-03-31T00:14:30;7.85;;;2.15;;
47089;SDS011;32840;52.516;13.294;2023-03-31T00:17:14;5.90;;;1.95;;
47089;SDS011;32840;52.516;13.294;2023-03-31T00:20:02;6.38;;;1.98;;
47089;SDS011;32840;52.516;13.294;2023-03-31T00:22:52;7.90;;;1.80;;
47089;SDS011;32840;52.516;13.294;2023-03-31T00:25:40;6.00;;;2.00;;
47089;SDS011;32840;52.516;13.294;2023-03-31T00:28:31;3.63;;;1.80;;
47089;SDS011;32840;52.516;13.294;2023-03-31T00:31:15;5.82;;;1.77;;
47089;SDS011;32840;52.516;13.294;2023-03-31T00:34:01;6.05;;;2.13;;
47089;SDS011;32840;52.516;13.294;2023-03-31T00:36:48;5.45;;;1.92;;
47089;SDS011;32840;52.516;13.294;2023-03-31T00:39:34;5.45;;;1.60;;
47089;SDS011;32840;52.516;13.294;2023-03-31T00:42:22;5.35;;;1.70;;
47089;SDS011;32840;52.516;13.294;2023-03-31T00:48:07;5.63;;;2.15;;
47089;SDS011;32840;52.516;13.294;2023-03-31T00:53:48;7.10;;;1.70;;
47089;SDS011;32840;52.516;13.294;2023-03-31T00:56:41;6.82;;;1.63;;
47089;SDS011;32840;52.516;13.294;2023-03-31T00:59:32;7.70;;;1.80;;
47089;SDS011;32840;52.516;13.294;2023-03-31T01:02:27;6.10;;;2.05;;
47089;SDS011;32840;52.516;13.294;2023-03-31T01:05:11;7.47;;;1.95;;
47089;SDS011;32840;52.516;13.294;2023-03-31T01:07:56;5.53;;;1.90;;
47089;SDS011;32840;52.516;13.294;2023-03-31T01:10:47;7.18;;;1.77;;
47089;SDS011;32840;52.516;13.294;2023-03-31T01:13:36;5.78;;;1.88;;
47089;SDS011;32840;52.516;13.294;2023-03-31T01:16:22;5.63;;;1.63;;
47089;SDS011;32840;52.516;13.294;2023-03-31T01:19:10;4.32;;;1.75;;
47089;SDS011;32840;52.516;13.294;2023-03-31T01:22:14;4.25;;;1.63;;
47089;SDS011;32840;52.516;13.294;2023-03-31T01:41:55;7.13;;;1.58;;
47089;SDS011;32840;52.516;13.294;2023-03-31T01:44:45;5.50;;;1.70;;
47089;SDS011;32840;52.516;13.294;2023-03-31T01:47:45;4.70;;;1.27;;
47089;SDS011;32840;52.516;13.294;2023-03-31T01:50:41;3.47;;;1.55;;
47089;SDS011;32840;52.516;13.294;2023-03-31T01:53:40;6.57;;;1.48;;
47089;SDS011;32840;52.516;13.294;2023-03-31T01:56:48;6.15;;;1.80;;
47089;SDS011;32840;52.516;13.294;2023-03-31T02:02:56;4.93;;;1.75;;
47089;SDS011;32840;52.516;13.294;2023-03-31T02:05:57;6.15;;;1.70;;
47089;SDS011;32840;52.516;13.294;2023-03-31T02:08:47;6.13;;;2.05;;
47089;SDS011;32840;52.516;13.294;2023-03-31T02:11:36;8.18;;;1.65;;
47089;SDS011;32840;52.516;13.294;2023-03-31T02:14:24;4.57;;;1.40;;
47089;SDS011;32840;52.516;13.294;2023-03-31T02:17:14;7.70;;;1.65;;
47089;SDS011;32840;52.516;13.294;2023-03-31T02:20:04;8.20;;;1.70;;
47089;SDS011;32840;52.516;13.294;2023-03-31T02:22:53;5.63;;;1.60;;
47089;SDS011;32840;52.516;13.294;2023-03-31T02:25:54;6.07;;;1.63;;
47089;SDS011;32840;52.516;13.294;2023-03-31T02:28:53;5.70;;;1.95;;
47089;SDS011;32840;52.516;13.294;2023-03-31T02:34:45;4.43;;;1.45;;
47089;SDS011;32840;52.516;13.294;2023-03-31T02:37:30;3.75;;;1.35;;
47089;SDS011;32840;52.516;13.294;2023-03-31T02:40:16;8.23;;;1.65;;
47089;SDS011;32840;52.516;13.294;2023-03-31T02:43:03;5.88;;;1.63;;
47089;SDS011;32840;52.516;13.294;2023-03-31T02:45:49;7.05;;;1.80;;
47089;SDS011;32840;52.516;13.294;2023-03-31T02:48:35;5.05;;;1.52;;
47089;SDS011;32840;52.516;13.294;2023-03-31T02:54:36;4.63;;;1.70;;
47089;SDS011;32840;52.516;13.294;2023-03-31T03:00:51;6.60;;;1.48;;
47089;SDS011;32840;52.516;13.294;2023-03-31T03:04:07;8.00;;;1.70;;
47089;SDS011;32840;52.516;13.294;2023-03-31T03:13:16;5.38;;;1.60;;
47089;SDS011;32840;52.516;13.294;2023-03-31T03:16:03;6.35;;;1.52;;
47089;SDS011;32840;52.516;13.294;2023-03-31T03:18:57;5.70;;;1.65;;
47089;SDS011;32840;52.516;13.294;2023-03-31T03:21:44;7.87;;;1.57;;
47089;SDS011;32840;52.516;13.294;2023-03-31T03:24:30;3.92;;;1.10;;
47089;SDS011;32840;52.516;13.294;2023-03-31T03:27:17;7.13;;;1.10;;
47089;SDS011;32840;52.516;13.294;2023-03-31T03:30:06;8.25;;;1.63;;
47089;SDS011;32840;52.516;13.294;2023-03-31T03:32:56;4.45;;;1.30;;
47089;SDS011;32840;52.516;13.294;2023-03-31T03:35:42;9.57;;;1.60;;
47089;SDS011;32840;52.516;13.294;2023-03-31T03:38:30;6.05;;;1.35;;
47089;SDS011;32840;52.516;13.294;2023-03-31T03:41:15;6.78;;;1.52;;
47089;SDS011;32840;52.516;13.294;2023-03-31T03:44:01;5.38;;;1.30;;
47089;SDS011;32840;52.516;13.294;2023-03-31T03:46:46;6.97;;;1.20;;
47089;SDS011;32840;52.516;13.294;2023-03-31T03:49:30;6.97;;;1.40;;
47089;SDS011;32840;52.516;13.294;2023-03-31T03:52:15;6.20;;;1.48;;
47089;SDS011;32840;52.516;13.294;2023-03-31T03:55:00;3.72;;;1.63;;
47089;SDS011;32840;52.516;13.294;2023-03-31T03:57:45;5.13;;;1.30;;
47089;SDS011;32840;52.516;13.294;2023-03-31T04:00:33;3.58;;;1.90;;
47089;SDS011;32840;52.516;13.294;2023-03-31T04:03:20;4.78;;;1.30;;
47089;SDS011;32840;52.516;13.294;2023-03-31T04:06:05;9.07;;;1.77;;
47089;SDS011;32840;52.516;13.294;2023-03-31T04:08:50;6.28;;;1.60;;
47089;SDS011;32840;52.516;13.294;2023-03-31T04:11:38;6.88;;;1.52;;
47089;SDS011;32840;52.516;13.294;2023-03-31T04:14:27;5.20;;;1.58;;
47089;SDS011;32840;52.516;13.294;2023-03-31T04:17:12;5.78;;;1.60;;
47089;SDS011;32840;52.516;13.294;2023-03-31T04:20:04;7.22;;;1.92;;
47089;SDS011;32840;52.516;13.294;2023-03-31T04:22:52;5.93;;;1.48;;
47089;SDS011;32840;52.516;13.294;2023-03-31T04:25:37;4.30;;;1.33;;
47089;SDS011;32840;52.516;13.294;2023-03-31T04:28:29;4.93;;;1.20;;
47089;SDS011;32840;52.516;13.294;2023-03-31T04:31:18;5.97;;;1.20;;
47089;SDS011;32840;52.516;13.294;2023-03-31T04:34:09;5.53;;;1.65;;
47089;SDS011;32840;52.516;13.294;2023-03-31T04:36:57;4.95;;;1.40;;
47089;SDS011;32840;52.516;13.294;2023-03-31T04:39:46;6.78;;;2.20;;
47089;SDS011;32840;52.516;13.294;2023-03-31T04:42:33;6.22;;;1.50;;
47089;SDS011;32840;52.516;13.294;2023-03-31T04:45:20;6.75;;;3.75;;
47089;SDS011;32840;52.516;13.294;2023-03-31T04:48:06;5.35;;;2.20;;
47089;SDS011;32840;52.516;13.294;2023-03-31T04:50:51;5.97;;;1.80;;
47089;SDS011;32840;52.516;13.294;2023-03-31T04:53:36;7.30;;;1.92;;
47089;SDS011;32840;52.516;13.294;2023-03-31T04:56:21;6.80;;;1.48;;
47089;SDS011;32840;52.516;13.294;2023-03-31T04:59:06;5.25;;;1.40;;
47089;SDS011;32840;52.516;13.294;2023-03-31T05:01:52;4.32;;;1.52;;
47089;SDS011;32840;52.516;13.294;2023-03-31T05:04:42;8.13;;;1.98;;
47089;SDS011;32840;52.516;13.294;2023-03-31T05:07:27;5.65;;;2.17;;
47089;SDS011;32840;52.516;13.294;2023-03-31T05:10:13;6.30;;;1.58;;
47089;SDS011;32840;52.516;13.294;2023-03-31T05:12:58;5.05;;;1.75;;
47089;SDS011;32840;52.516;13.294;2023-03-31T05:15:43;2.78;;;1.48;;
47089;SDS011;32840;52.516;13.294;2023-03-31T05:18:31;7.38;;;1.67;;
47089;SDS011;32840;52.516;13.294;2023-03-31T05:21:17;6.25;;;1.58;;
47089;SDS011;32840;52.516;13.294;2023-03-31T05:24:04;7.70;;;1.92;;
47089;SDS011;32840;52.516;13.294;2023-03-31T05:26:49;5.68;;;1.58;;
47089;SDS011;32840;52.516;13.294;2023-03-31T05:29:35;8.43;;;1.90;;
47089;SDS011;32840;52.516;13.294;2023-03-31T05:32:22;8.32;;;1.98;;
47089;SDS011;32840;52.516;13.294;2023-03-31T05:35:07;4.38;;;1.60;;
47089;SDS011;32840;52.516;13.294;2023-03-31T05:37:52;7.90;;;2.42;;
47089;SDS011;32840;52.516;13.294;2023-03-31T05:40:38;7.53;;;3.20;;
47089;SDS011;32840;52.516;13.294;2023-03-31T05:43:23;9.20;;;2.15;;
47089;SDS011;32840;52.516;13.294;2023-03-31T05:46:08;6.18;;;1.80;;
47089;SDS011;32840;52.516;13.294;2023-03-31T05:48:53;5.82;;;1.70;;
47089;SDS011;32840;52.516;13.294;2023-03-31T05:51:38;7.50;;;1.88;;
47089;SDS011;32840;52.516;13.294;2023-03-31T05:54:26;10.30;;;2.20;;
47089;SDS011;32840;52.516;13.294;2023-03-31T05:57:12;5.65;;;2.13;;
47089;SDS011;32840;52.516;13.294;2023-03-31T06:00:00;3.55;;;1.20;;
47089;SDS011;32840;52.516;13.294;2023-03-31T06:02:45;5.95;;;1.52;;
47089;SDS011;32840;52.516;13.294;2023-03-31T06:05:31;7.72;;;1.67;;
47089;SDS011;32840;52.516;13.294;2023-03-31T06:08:17;4.35;;;1.58;;
47089;SDS011;32840;52.516;13.294;2023-03-31T06:11:06;6.07;;;2.08;;
47089;SDS011;32840;52.516;13.294;2023-03-31T06:13:52;7.47;;;2.10;;
47089;SDS011;32840;52.516;13.294;2023-03-31T06:16:37;6.72;;;2.10;;
47089;SDS011;32840;52.516;13.294;2023-03-31T06:19:22;5.63;;;1.98;;
47089;SDS011;32840;52.516;13.294;2023-03-31T06:22:08;11.25;;;2.30;;
47089;SDS011;32840;52.516;13.294;2023-03-31T06:24:52;13.15;;;1.98;;
47089;SDS011;32840;52.516;13.294;2023-03-31T06:27:37;9.20;;;3.35;;
47089;SDS011;32840;52.516;13.294;2023-03-31T06:30:28;8.23;;;2.80;;
47089;SDS011;32840;52.516;13.294;2023-03-31T06:33:13;10.15;;;2.33;;
47089;SDS011;32840;52.516;13.294;2023-03-31T06:35:59;7.47;;;2.13;;
47089;SDS011;32840;52.516;13.294;2023-03-31T06:38:47;4.28;;;1.70;;
47089;SDS011;32840;52.516;13.294;2023-03-31T06:41:34;7.50;;;2.33;;
47089;SDS011;32840;52.516;13.294;2023-03-31T06:44:19;7.85;;;1.98;;
47089;SDS011;32840;52.516;13.294;2023-03-31T06:47:10;12.02;;;2.75;;
47089;SDS011;32840;52.516;13.294;2023-03-31T06:49:55;6.35;;;2.33;;
47089;SDS011;32840;52.516;13.294;2023-03-31T06:52:40;6.82;;;1.85;;
47089;SDS011;32840;52.516;13.294;2023-03-31T06:55:25;7.47;;;1.95;;
47089;SDS011;32840;52.516;13.294;2023-03-31T06:58:11;7.80;;;1.90;;
47089;SDS011;32840;52.516;13.294;2023-03-31T07:00:56;9.27;;;2.38;;
47089;SDS011;32840;52.516;13.294;2023-03-31T07:03:41;5.85;;;1.98;;
47089;SDS011;32840;52.516;13.294;2023-03-31T07:06:27;9.73;;;2.97;;
47089;SDS011;32840;52.516;13.294;2023-03-31T07:09:11;8.20;;;2.30;;
47089;SDS011;32840;52.516;13.294;2023-03-31T07:11:56;7.53;;;1.67;;
47089;SDS011;32840;52.516;13.294;2023-03-31T07:14:41;9.10;;;2.30;;
47089;SDS011;32840;52.516;13.294;2023-03-31T07:17:26;8.93;;;2.47;;
47089;SDS011;32840;52.516;13.294;2023-03-31T07:20:16;8.07;;;2.33;;
47089;SDS011;32840;52.516;13.294;2023-03-31T07:23:03;7.32;;;1.95;;
47089;SDS011;32840;52.516;13.294;2023-03-31T07:25:49;6.60;;;1.80;;
47089;SDS011;32840;52.516;13.294;2023-03-31T07:28:33;5.82;;;1.73;;
47089;SDS011;32840;52.516;13.294;2023-03-31T07:31:18;5.90;;;1.48;;
47089;SDS011;32840;52.516;13.294;2023-03-31T07:34:03;8.60;;;2.42;;
47089;SDS011;32840;52.516;13.294;2023-03-31T07:36:48;8.90;;;2.60;;
47089;SDS011;32840;52.516;13.294;2023-03-31T07:39:34;7.28;;;2.35;;
47089;SDS011;32840;52.516;13.294;2023-03-31T07:42:21;6.28;;;2.33;;
47089;SDS011;32840;52.516;13.294;2023-03-31T07:45:06;8.65;;;2.08;;
47089;SDS011;32840;52.516;13.294;2023-03-31T07:47:54;7.88;;;1.90;;
47089;SDS011;32840;52.516;13.294;2023-03-31T07:50:41;12.75;;;2.45;;
47089;SDS011;32840;52.516;13.294;2023-03-31T07:53:26;5.80;;;2.03;;
47089;SDS011;32840;52.516;13.294;2023-03-31T07:56:12;11.88;;;3.42;;
47089;SDS011;32840;52.516;13.294;2023-03-31T07:59:00;7.00;;;1.80;;
47089;SDS011;32840;52.516;13.294;2023-03-31T08:01:45;10.18;;;3.42;;
47089;SDS011;32840;52.516;13.294;2023-03-31T08:04:30;10.63;;;1.90;;
47089;SDS011;32840;52.516;13.294;2023-03-31T08:07:15;5.97;;;1.85;;
47089;SDS011;32840;52.516;13.294;2023-03-31T08:10:03;6.72;;;1.88;;
47089;SDS011;32840;52.516;13.294;2023-03-31T08:12:49;6.07;;;1.70;;
47089;SDS011;32840;52.516;13.294;2023-03-31T08:15:35;6.35;;;1.45;;
47089;SDS011;32840;52.516;13.294;2023-03-31T08:18:19;6.95;;;1.73;;
47089;SDS011;32840;52.516;13.294;2023-03-31T08:21:04;5.05;;;2.03;;
47089;SDS011;32840;52.516;13.294;2023-03-31T08:23:52;7.10;;;1.73;;
47089;SDS011;32840;52.516;13.294;2023-03-31T08:26:43;9.00;;;1.90;;
47089;SDS011;32840;52.516;13.294;2023-03-31T08:29:30;6.55;;;2.50;;
47089;SDS011;32840;52.516;13.294;2023-03-31T08:32:16;8.52;;;2.50;;
47089;SDS011;32840;52.516;13.294;2023-03-31T08:35:01;7.05;;;2.10;;
47089;SDS011;32840;52.516;13.294;2023-03-31T08:37:49;7.82;;;2.28;;
47089;SDS011;32840;52.516;13.294;2023-03-31T08:40:34;7.35;;;2.45;;
47089;SDS011;32840;52.516;13.294;2023-03-31T08:43:26;7.97;;;1.73;;
47089;SDS011;32840;52.516;13.294;2023-03-31T08:46:25;6.70;;;1.92;;
47089;SDS011;32840;52.516;13.294;2023-03-31T08:49:14;6.28;;;2.00;;
47089;SDS011;32840;52.516;13.294;2023-03-31T08:52:02;5.45;;;1.85;;
47089;SDS011;32840;52.516;13.294;2023-03-31T08:54:51;6.97;;;2.17;;
47089;SDS011;32840;52.516;13.294;2023-03-31T09:00:52;9.15;;;3.70;;
47089;SDS011;32840;52.516;13.294;2023-03-31T09:10:23;10.70;;;2.22;;
47089;SDS011;32840;52.516;13.294;2023-03-31T09:16:18;4.38;;;1.60;;
47089;SDS011;32840;52.516;13.294;2023-03-31T09:19:29;7.10;;;1.90;;
47089;SDS011;32840;52.516;13.294;2023-03-31T09:22:20;7.72;;;1.52;;
47089;SDS011;32840;52.516;13.294;2023-03-31T09:25:13;7.35;;;1.92;;
47089;SDS011;32840;52.516;13.294;2023-03-31T09:28:13;5.45;;;1.50;;
47089;SDS011;32840;52.516;13.294;2023-03-31T09:31:15;6.80;;;2.05;;
47089;SDS011;32840;52.516;13.294;2023-03-31T09:34:06;6.72;;;1.95;;
47089;SDS011;32840;52.516;13.294;2023-03-31T09:36:58;7.60;;;2.20;;
47089;SDS011;32840;52.516;13.294;2023-03-31T09:39:44;8.15;;;2.05;;
47089;SDS011;32840;52.516;13.294;2023-03-31T09:42:29;5.82;;;1.58;;
47089;SDS011;32840;52.516;13.294;2023-03-31T09:45:17;6.32;;;1.80;;
47089;SDS011;32840;52.516;13.294;2023-03-31T09:48:10;8.93;;;1.83;;
47089;SDS011;32840;52.516;13.294;2023-03-31T09:51:05;6.75;;;2.30;;
47089;SDS011;32840;52.516;13.294;2023-03-31T09:53:57;6.68;;;1.90;;
47089;SDS011;32840;52.516;13.294;2023-03-31T09:56:52;4.18;;;1.60;;
47089;SDS011;32840;52.516;13.294;2023-03-31T10:05:25;5.22;;;1.77;;
47089;SDS011;32840;52.516;13.294;2023-03-31T10:08:28;6.35;;;1.55;;
47089;SDS011;32840;52.516;13.294;2023-03-31T10:14:03;4.95;;;1.90;;
47089;SDS011;32840;52.516;13.294;2023-03-31T10:16:58;6.13;;;2.30;;
47089;SDS011;32840;52.516;13.294;2023-03-31T10:19:49;6.80;;;1.80;;
47089;SDS011;32840;52.516;13.294;2023-03-31T10:22:37;7.60;;;2.95;;
47089;SDS011;32840;52.516;13.294;2023-03-31T10:25:32;14.55;;;6.35;;
47089;SDS011;32840;52.516;13.294;2023-03-31T10:28:18;5.90;;;2.60;;
47089;SDS011;32840;52.516;13.294;2023-03-31T10:31:04;8.25;;;3.00;;
47089;SDS011;32840;52.516;13.294;2023-03-31T10:33:49;9.70;;;5.95;;
47089;SDS011;32840;52.516;13.294;2023-03-31T10:36:35;6.75;;;1.95;;
47089;SDS011;32840;52.516;13.294;2023-03-31T10:39:20;6.97;;;2.80;;
47089;SDS011;32840;52.516;13.294;2023-03-31T10:42:20;8.18;;;3.55;;
47089;SDS011;32840;52.516;13.294;2023-03-31T10:45:13;8.35;;;4.22;;
47089;SDS011;32840;52.516;13.294;2023-03-31T10:48:17;10.70;;;4.47;;
47089;SDS011;32840;52.516;13.294;2023-03-31T10:51:18;8.52;;;3.78;;
47089;SDS011;32840;52.516;13.294;2023-03-31T10:54:04;9.57;;;4.20;;
47089;SDS011;32840;52.516;13.294;2023-03-31T10:57:03;6.22;;;1.55;;
47089;SDS011;32840;52.516;13.294;2023-03-31T10:59:53;13.15;;;3.22;;
47089;SDS011;32840;52.516;13.294;2023-03-31T11:06:05;7.63;;;2.00;;
47089;SDS011;32840;52.516;13.294;2023-03-31T11:09:12;6.75;;;2.78;;
47089;SDS011;32840;52.516;13.294;2023-03-31T11:15:20;7.70;;;3.42;;
47089;SDS011;32840;52.516;13.294;2023-03-31T11:24:41;5.70;;;2.30;;
47089;SDS011;32840;52.516;13.294;2023-03-31T11:27:53;8.07;;;2.22;;
47089;SDS011;32840;52.516;13.294;2023-03-31T11:30:56;6.63;;;1.80;;
47089;SDS011;32840;52.516;13.294;2023-03-31T11:34:02;5.05;;;1.35;;
47089;SDS011;32840;52.516;13.294;2023-03-31T11:40:16;8.52;;;1.83;;
47089;SDS011;32840;52.516;13.294;2023-03-31T11:45:55;6.93;;;1.98;;
47089;SDS011;32840;52.516;13.294;2023-03-31T11:49:03;7.90;;;2.15;;
47089;SDS011;32840;52.516;13.294;2023-03-31T11:52:02;6.28;;;1.48;;
47089;SDS011;32840;52.516;13.294;2023-03-31T11:55:16;8.77;;;1.95;;
47089;SDS011;32840;52.516;13.294;2023-03-31T11:58:05;6.13;;;1.88;;
47089;SDS011;32840;52.516;13.294;2023-03-31T12:00:59;5.50;;;2.00;;
47089;SDS011;32840;52.516;13.294;2023-03-31T12:03:55;8.82;;;2.67;;
47089;SDS011;32840;52.516;13.294;2023-03-31T12:06:57;6.43;;;2.10;;
47089;SDS011;32840;52.516;13.294;2023-03-31T12:10:06;6.32;;;2.72;;
47089;SDS011;32840;52.516;13.294;2023-03-31T12:16:12;8.40;;;2.60;;
47089;SDS011;32840;52.516;13.294;2023-03-31T12:22:09;7.75;;;2.80;;
47089;SDS011;32840;52.516;13.294;2023-03-31T12:24:59;7.35;;;2.47;;
47089;SDS011;32840;52.516;13.294;2023-03-31T12:27:45;6.07;;;2.30;;
47089;SDS011;32840;52.516;13.294;2023-03-31T12:30:40;4.03;;;1.98;;
47089;SDS011;32840;52.516;13.294;2023-03-31T12:33:34;7.53;;;2.40;;
47089;SDS011;32840;52.516;13.294;2023-03-31T12:36:26;7.07;;;2.40;;
47089;SDS011;32840;52.516;13.294;2023-03-31T12:39:30;9.23;;;3.13;;
47089;SDS011;32840;52.516;13.294;2023-03-31T12:49:21;8.32;;;2.80;;
47089;SDS011;32840;52.516;13.294;2023-03-31T12:52:34;4.65;;;1.90;;
47089;SDS011;32840;52.516;13.294;2023-03-31T12:55:36;5.72;;;1.90;;
47089;SDS011;32840;52.516;13.294;2023-03-31T13:01:16;5.85;;;2.00;;
47089;SDS011;32840;52.516;13.294;2023-03-31T13:13:50;5.05;;;1.98;;
47089;SDS011;32840;52.516;13.294;2023-03-31T13:17:10;9.13;;;2.70;;
47089;SDS011;32840;52.516;13.294;2023-03-31T13:20:15;6.10;;;2.40;;
47089;SDS011;32840;52.516;13.294;2023-03-31T13:23:04;11.00;;;2.60;;
47089;SDS011;32840;52.516;13.294;2023-03-31T13:26:03;8.18;;;3.05;;
47089;SDS011;32840;52.516;13.294;2023-03-31T13:28:48;10.43;;;3.47;;
47089;SDS011;32840;52.516;13.294;2023-03-31T13:34:54;8.93;;;4.97;;
47089;SDS011;32840;52.516;13.294;2023-03-31T13:41:29;6.10;;;3.25;;
47089;SDS011;32840;52.516;13.294;2023-03-31T13:44:27;6.05;;;3.00;;
47089;SDS011;32840;52.516;13.294;2023-03-31T14:06:39;8.50;;;4.45;;
47089;SDS011;32840;52.516;13.294;2023-03-31T14:12:36;3.83;;;1.20;;
47089;SDS011;32840;52.516;13.294;2023-03-31T14:15:22;5.78;;;1.40;;
47089;SDS011;32840;52.516;13.294;2023-03-31T14:18:06;8.65;;;1.65;;
47089;SDS011;32840;52.516;13.294;2023-03-31T14:27:24;8.98;;;1.45;;
47089;SDS011;32840;52.516;13.294;2023-03-31T14:30:29;2.47;;;1.00;;
47089;SDS011;32840;52.516;13.294;2023-03-31T14:36:47;3.38;;;0.93;;
47089;SDS011;32840;52.516;13.294;2023-03-31T14:39:44;3.95;;;1.10;;
47089;SDS011;32840;52.516;13.294;2023-03-31T14:42:38;2.80;;;0.70;;
47089;SDS011;32840;52.516;13.294;2023-03-31T14:45:25;3.03;;;0.95;;
47089;SDS011;32840;52.516;13.294;2023-03-31T14:48:14;5.05;;;1.00;;
47089;SDS011;32840;52.516;13.294;2023-03-31T14:51:00;1.80;;;1.05;;
47089;SDS011;32840;52.516;13.294;2023-03-31T14:53:46;2.45;;;0.80;;
47089;SDS011;32840;52.516;13.294;2023-03-31T14:56:32;2.67;;;0.90;;
47089;SDS011;32840;52.516;13.294;2023-03-31T14:59:23;2.40;;;0.80;;
47089;SDS011;32840;52.516;13.294;2023-03-31T15:02:18;2.30;;;0.80;;
47089;SDS011;32840;52.516;13.294;2023-03-31T15:05:23;3.20;;;0.88;;
47089;SDS011;32840;52.516;13.294;2023-03-31T15:08:17;2.42;;;0.90;;
47089;SDS011;32840;52.516;13.294;2023-03-31T15:11:11;2.40;;;0.98;;
47089;SDS011;32840;52.516;13.294;2023-03-31T15:13:59;1.67;;;0.80;;
47089;SDS011;32840;52.516;13.294;2023-03-31T15:16:46;2.25;;;0.80;;
47089;SDS011;32840;52.516;13.294;2023-03-31T15:19:36;4.22;;;1.40;;
47089;SDS011;32840;52.516;13.294;2023-03-31T15:22:27;1.77;;;0.75;;
47089;SDS011;32840;52.516;13.294;2023-03-31T15:25:13;2.40;;;1.00;;
47089;SDS011;32840;52.516;13.294;2023-03-31T15:28:03;3.45;;;1.20;;
47089;SDS011;32840;52.516;13.294;2023-03-31T15:30:57;4.30;;;1.23;;
47089;SDS011;32840;52.516;13.294;2023-03-31T15:33:44;2.88;;;1.25;;
47089;SDS011;32840;52.516;13.294;2023-03-31T15:36:31;2.53;;;1.00;;
47089;SDS011;32840;52.516;13.294;2023-03-31T15:39:16;1.83;;;0.80;;
47089;SDS011;32840;52.516;13.294;2023-03-31T15:42:02;2.47;;;1.25;;
47089;SDS011;32840;52.516;13.294;2023-03-31T15:44:53;3.75;;;1.20;;
47089;SDS011;32840;52.516;13.294;2023-03-31T15:47:44;3.10;;;1.15;;
47089;SDS011;32840;52.516;13.294;2023-03-31T15:50:34;5.15;;;0.95;;
47089;SDS011;32840;52.516;13.294;2023-03-31T15:53:24;2.75;;;1.30;;
47089;SDS011;32840;52.516;13.294;2023-03-31T15:56:30;3.40;;;2.03;;
47089;SDS011;32840;52.516;13.294;2023-03-31T15:59:21;4.60;;;1.17;;
47089;SDS011;32840;52.516;13.294;2023-03-31T16:02:11;4.38;;;1.40;;
47089;SDS011;32840;52.516;13.294;2023-03-31T16:05:06;4.53;;;1.40;;
47089;SDS011;32840;52.516;13.294;2023-03-31T16:08:04;3.72;;;1.88;;
47089;SDS011;32840;52.516;13.294;2023-03-31T16:11:01;3.20;;;1.55;;
47089;SDS011;32840;52.516;13.294;2023-03-31T16:13:55;5.57;;;1.30;;
47089;SDS011;32840;52.516;13.294;2023-03-31T16:16:45;4.15;;;1.55;;
47089;SDS011;32840;52.516;13.294;2023-03-31T16:19:40;2.67;;;1.10;;
47089;SDS011;32840;52.516;13.294;2023-03-31T16:22:42;6.28;;;1.05;;
47089;SDS011;32840;52.516;13.294;2023-03-31T16:25:30;2.53;;;1.20;;
47089;SDS011;32840;52.516;13.294;2023-03-31T16:28:24;2.03;;;1.10;;
47089;SDS011;32840;52.516;13.294;2023-03-31T16:31:35;2.85;;;1.48;;
47089;SDS011;32840;52.516;13.294;2023-03-31T16:34:23;4.78;;;1.90;;
47089;SDS011;32840;52.516;13.294;2023-03-31T16:37:07;5.55;;;1.90;;
47089;SDS011;32840;52.516;13.294;2023-03-31T16:39:58;4.15;;;1.95;;
47089;SDS011;32840;52.516;13.294;2023-03-31T16:42:44;5.82;;;1.80;;
47089;SDS011;32840;52.516;13.294;2023-03-31T16:45:31;3.05;;;1.02;;
47089;SDS011;32840;52.516;13.294;2023-03-31T16:48:17;3.80;;;1.40;;
47089;SDS011;32840;52.516;13.294;2023-03-31T16:51:03;3.55;;;1.58;;
47089;SDS011;32840;52.516;13.294;2023-03-31T16:53:50;3.53;;;1.55;;
47089;SDS011;32840;52.516;13.294;2023-03-31T16:56:37;6.45;;;2.38;;
47089;SDS011;32840;52.516;13.294;2023-03-31T16:59:23;3.42;;;1.85;;
47089;SDS011;32840;52.516;13.294;2023-03-31T17:02:09;2.25;;;1.40;;
47089;SDS011;32840;52.516;13.294;2023-03-31T17:04:55;4.07;;;1.63;;
47089;SDS011;32840;52.516;13.294;2023-03-31T17:07:40;3.28;;;1.10;;
47089;SDS011;32840;52.516;13.294;2023-03-31T17:10:27;3.60;;;1.55;;
47089;SDS011;32840;52.516;13.294;2023-03-31T17:13:13;2.10;;;0.98;;
47089;SDS011;32840;52.516;13.294;2023-03-31T17:15:58;3.28;;;1.20;;
47089;SDS011;32840;52.516;13.294;2023-03-31T17:18:46;3.08;;;1.10;;
47089;SDS011;32840;52.516;13.294;2023-03-31T17:21:32;2.58;;;1.40;;
47089;SDS011;32840;52.516;13.294;2023-03-31T17:24:17;2.63;;;1.35;;
47089;SDS011;32840;52.516;13.294;2023-03-31T17:27:02;3.00;;;1.40;;
47089;SDS011;32840;52.516;13.294;2023-03-31T17:29:48;2.28;;;1.25;;
47089;SDS011;32840;52.516;13.294;2023-03-31T17:32:35;3.92;;;2.05;;
47089;SDS011;32840;52.516;13.294;2023-03-31T17:35:20;5.60;;;1.65;;
47089;SDS011;32840;52.516;13.294;2023-03-31T17:38:06;3.20;;;1.67;;
47089;SDS011;32840;52.516;13.294;2023-03-31T17:40:53;3.00;;;1.85;;
47089;SDS011;32840;52.516;13.294;2023-03-31T17:43:44;3.22;;;1.95;;
47089;SDS011;32840;52.516;13.294;2023-03-31T17:46:30;4.88;;;2.00;;
47089;SDS011;32840;52.516;13.294;2023-03-31T17:49:16;3.58;;;1.63;;
47089;SDS011;32840;52.516;13.294;2023-03-31T17:52:02;4.05;;;1.63;;
47089;SDS011;32840;52.516;13.294;2023-03-31T17:54:47;4.53;;;2.42;;
47089;SDS011;32840;52.516;13.294;2023-03-31T17:57:32;3.97;;;1.73;;
47089;SDS011;32840;52.516;13.294;2023-03-31T18:00:20;4.00;;;1.90;;
47089;SDS011;32840;52.516;13.294;2023-03-31T18:03:05;4.88;;;2.03;;
47089;SDS011;32840;52.516;13.294;2023-03-31T18:05:50;5.38;;;2.80;;
47089;SDS011;32840;52.516;13.294;2023-03-31T18:08:35;7.55;;;3.17;;
47089;SDS011;32840;52.516;13.294;2023-03-31T18:11:20;7.00;;;3.55;;
47089;SDS011;32840;52.516;13.294;2023-03-31T18:14:05;5.10;;;2.90;;
47089;SDS011;32840;52.516;13.294;2023-03-31T18:16:50;4.90;;;2.55;;
47089;SDS011;32840;52.516;13.294;2023-03-31T18:19:36;3.95;;;2.70;;
47089;SDS011;32840;52.516;13.294;2023-03-31T18:22:21;4.45;;;2.38;;
47089;SDS011;32840;52.516;13.294;2023-03-31T18:25:06;4.75;;;2.40;;
47089;SDS011;32840;52.516;13.294;2023-03-31T18:27:51;6.82;;;3.63;;
47089;SDS011;32840;52.516;13.294;2023-03-31T18:30:36;5.25;;;2.42;;
47089;SDS011;32840;52.516;13.294;2023-03-31T18:33:24;7.47;;;3.05;;
47089;SDS011;32840;52.516;13.294;2023-03-31T18:36:14;3.97;;;2.60;;
47089;SDS011;32840;52.516;13.294;2023-03-31T18:39:02;6.72;;;4.10;;
47089;SDS011;32840;52.516;13.294;2023-03-31T18:41:48;6.22;;;3.10;;
47089;SDS011;32840;52.516;13.294;2023-03-31T18:44:34;6.70;;;3.97;;
47089;SDS011;32840;52.516;13.294;2023-03-31T18:47:19;2.58;;;2.00;;
47089;SDS011;32840;52.516;13.294;2023-03-31T18:50:04;4.32;;;2.20;;
47089;SDS011;32840;52.516;13.294;2023-03-31T18:52:50;4.35;;;2.28;;
47089;SDS011;32840;52.516;13.294;2023-03-31T18:55:36;4.18;;;2.35;;
47089;SDS011;32840;52.516;13.294;2023-03-31T18:58:26;4.78;;;2.65;;
47089;SDS011;32840;52.516;13.294;2023-03-31T19:01:12;4.77;;;2.80;;
47089;SDS011;32840;52.516;13.294;2023-03-31T19:03:58;6.88;;;4.00;;
47089;SDS011;32840;52.516;13.294;2023-03-31T19:06:44;4.95;;;3.30;;
47089;SDS011;32840;52.516;13.294;2023-03-31T19:09:29;5.35;;;3.60;;
47089;SDS011;32840;52.516;13.294;2023-03-31T19:12:15;6.18;;;4.03;;